YBTL METAR and TAF | Updated Today

YBTL METAR

Townsville Airport

Observation time: 9 min. ago

YBTL 060800Z AUTO 07014KT 9999 // SCT024 28/23 Q1008

Need help? Read our tutorial on how to read METARs or read the parsed version below.

Townsville Airport (YBTL) METAR

  • Weather conditions on Mon, 06 Dec 2021 08:00:00 +0000 (9 min. ago):
  • Present conditions: Dry
  • Clouds: Scattered at 732 meters
  • Visibility: Greater than 10 km
  • Wind: 70 degrees at 14 knots
  • Temperature: 28 celsius
  • Dew point: 23 celsius
  • Pressure: 1008 millibars
  • Remarks: None


Useful to know...

YBTL TAF

Townsville Airport

TAF YBTL 060713Z 0608/0706 07014KT 9999 FEW040 FM060900 11008KT 9999 SCT025 FM070100 07015KT 9999 FEW025
Observation time: 56 min. ago
Need help? Read our tutorial on how to read TAFs or read the parsed version below.

Parsed version of TAF for Townsville Airport (YBTL)

  • From 06 December at 08:00 UTC, to day 07 of the month at 06:00 UTC
  • Clouds: A few at 1219 meters
  • Visibility: Greater than 10 km
  • Wind: 70 degrees at 14
  • From day 6 of the month at 09:00 UTC
  • Clouds: Scattered at 762 meters
  • Visibility: Greater than 10 km
  • Wind: 110 degrees at 8
  • From day 7 of the month at 01:00 UTC
  • Clouds: A few at 762 meters
  • Visibility: Greater than 10 km
  • Wind: 70 degrees at 15

Airports near YBTL

No airports found within 100nm radius.